sensor_id;sensor_type;location;lat;lon;timestamp;P1;durP1;ratioP1;P2;durP2;ratioP2
41667;SDS011;27356;50.920;5.350;2023-05-21T00:01:13;5.32;;;4.80;;
41667;SDS011;27356;50.920;5.350;2023-05-21T00:03:40;6.78;;;4.68;;
41667;SDS011;27356;50.920;5.350;2023-05-21T00:06:10;6.30;;;4.85;;
41667;SDS011;27356;50.920;5.350;2023-05-21T00:08:37;5.35;;;4.85;;
41667;SDS011;27356;50.920;5.350;2023-05-21T00:11:04;5.82;;;5.07;;
41667;SDS011;27356;50.920;5.350;2023-05-21T00:13:30;5.57;;;4.90;;
41667;SDS011;27356;50.920;5.350;2023-05-21T00:15:55;7.85;;;4.88;;
41667;SDS011;27356;50.920;5.350;2023-05-21T00:18:21;5.47;;;4.88;;
41667;SDS011;27356;50.920;5.350;2023-05-21T00:20:49;6.00;;;5.30;;
41667;SDS011;27356;50.920;5.350;2023-05-21T00:23:15;5.72;;;4.97;;
41667;SDS011;27356;50.920;5.350;2023-05-21T00:25:43;5.68;;;5.18;;
41667;SDS011;27356;50.920;5.350;2023-05-21T00:28:09;8.88;;;5.28;;
41667;SDS011;27356;50.920;5.350;2023-05-21T00:30:35;7.50;;;5.50;;
41667;SDS011;27356;50.920;5.350;2023-05-21T00:33:01;5.80;;;5.07;;
41667;SDS011;27356;50.920;5.350;2023-05-21T00:35:28;7.22;;;5.05;;
41667;SDS011;27356;50.920;5.350;2023-05-21T00:37:54;8.15;;;5.30;;
41667;SDS011;27356;50.920;5.350;2023-05-21T00:40:20;8.65;;;6.07;;
41667;SDS011;27356;50.920;5.350;2023-05-21T00:42:45;10.57;;;5.90;;
41667;SDS011;27356;50.920;5.350;2023-05-21T00:45:12;6.63;;;5.75;;
41667;SDS011;27356;50.920;5.350;2023-05-21T00:47:39;6.18;;;5.35;;
41667;SDS011;27356;50.920;5.350;2023-05-21T00:50:05;5.93;;;5.25;;
41667;SDS011;27356;50.920;5.350;2023-05-21T00:52:32;6.85;;;5.93;;
41667;SDS011;27356;50.920;5.350;2023-05-21T00:55:05;11.35;;;6.03;;
41667;SDS011;27356;50.920;5.350;2023-05-21T00:57:32;6.93;;;5.57;;
41667;SDS011;27356;50.920;5.350;2023-05-21T00:59:58;9.60;;;5.82;;
41667;SDS011;27356;50.920;5.350;2023-05-21T01:02:24;10.82;;;5.22;;
41667;SDS011;27356;50.920;5.350;2023-05-21T01:04:53;12.05;;;6.50;;
41667;SDS011;27356;50.920;5.350;2023-05-21T01:07:20;6.65;;;5.47;;
41667;SDS011;27356;50.920;5.350;2023-05-21T01:09:46;7.05;;;5.75;;
41667;SDS011;27356;50.920;5.350;2023-05-21T01:12:12;6.80;;;5.90;;
41667;SDS011;27356;50.920;5.350;2023-05-21T01:14:38;6.40;;;5.75;;
41667;SDS011;27356;50.920;5.350;2023-05-21T01:17:05;7.68;;;6.28;;
41667;SDS011;27356;50.920;5.350;2023-05-21T01:19:34;7.35;;;6.10;;
41667;SDS011;27356;50.920;5.350;2023-05-21T01:22:06;7.78;;;6.53;;
41667;SDS011;27356;50.920;5.350;2023-05-21T01:24:33;11.05;;;7.05;;
41667;SDS011;27356;50.920;5.350;2023-05-21T01:27:00;8.13;;;7.22;;
41667;SDS011;27356;50.920;5.350;2023-05-21T01:29:30;13.93;;;7.10;;
41667;SDS011;27356;50.920;5.350;2023-05-21T01:35:04;7.63;;;6.20;;
41667;SDS011;27356;50.920;5.350;2023-05-21T01:37:51;9.63;;;6.53;;
41667;SDS011;27356;50.920;5.350;2023-05-21T01:42:50;12.02;;;7.68;;
41667;SDS011;27356;50.920;5.350;2023-05-21T01:45:16;7.72;;;6.45;;
41667;SDS011;27356;50.920;5.350;2023-05-21T01:47:44;11.50;;;6.63;;
41667;SDS011;27356;50.920;5.350;2023-05-21T01:50:13;6.45;;;5.85;;
41667;SDS011;27356;50.920;5.350;2023-05-21T01:52:47;8.15;;;6.57;;
41667;SDS011;27356;50.920;5.350;2023-05-21T01:55:13;8.20;;;6.30;;
41667;SDS011;27356;50.920;5.350;2023-05-21T01:57:39;9.15;;;6.03;;
41667;SDS011;27356;50.920;5.350;2023-05-21T02:00:05;7.53;;;6.53;;
41667;SDS011;27356;50.920;5.350;2023-05-21T02:02:32;12.00;;;7.28;;
41667;SDS011;27356;50.920;5.350;2023-05-21T02:04:58;10.52;;;7.25;;
41667;SDS011;27356;50.920;5.350;2023-05-21T02:07:24;7.45;;;6.68;;
41667;SDS011;27356;50.920;5.350;2023-05-21T02:09:53;8.27;;;7.20;;
41667;SDS011;27356;50.920;5.350;2023-05-21T02:12:18;7.93;;;6.07;;
41667;SDS011;27356;50.920;5.350;2023-05-21T02:14:44;9.82;;;7.38;;
41667;SDS011;27356;50.920;5.350;2023-05-21T02:17:14;8.68;;;6.70;;
41667;SDS011;27356;50.920;5.350;2023-05-21T02:19:41;9.85;;;6.57;;
41667;SDS011;27356;50.920;5.350;2023-05-21T02:22:09;9.27;;;6.70;;
41667;SDS011;27356;50.920;5.350;2023-05-21T02:24:35;7.43;;;6.55;;
41667;SDS011;27356;50.920;5.350;2023-05-21T02:27:01;9.85;;;6.93;;
41667;SDS011;27356;50.920;5.350;2023-05-21T02:29:27;9.55;;;7.43;;
41667;SDS011;27356;50.920;5.350;2023-05-21T02:31:53;10.43;;;6.95;;
41667;SDS011;27356;50.920;5.350;2023-05-21T02:34:19;9.20;;;7.45;;
41667;SDS011;27356;50.920;5.350;2023-05-21T02:36:45;10.80;;;6.90;;
41667;SDS011;27356;50.920;5.350;2023-05-21T02:39:16;9.82;;;7.05;;
41667;SDS011;27356;50.920;5.350;2023-05-21T02:41:44;10.43;;;7.05;;
41667;SDS011;27356;50.920;5.350;2023-05-21T02:44:11;8.75;;;6.82;;
41667;SDS011;27356;50.920;5.350;2023-05-21T02:46:37;8.38;;;7.35;;
41667;SDS011;27356;50.920;5.350;2023-05-21T02:49:02;10.27;;;6.90;;
41667;SDS011;27356;50.920;5.350;2023-05-21T02:51:28;10.27;;;8.15;;
41667;SDS011;27356;50.920;5.350;2023-05-21T02:53:54;10.98;;;7.35;;
41667;SDS011;27356;50.920;5.350;2023-05-21T02:56:20;7.63;;;6.47;;
41667;SDS011;27356;50.920;5.350;2023-05-21T02:58:46;11.00;;;7.00;;
41667;SDS011;27356;50.920;5.350;2023-05-21T03:01:11;12.77;;;6.70;;
41667;SDS011;27356;50.920;5.350;2023-05-21T03:03:37;7.90;;;6.82;;
41667;SDS011;27356;50.920;5.350;2023-05-21T03:06:03;9.45;;;7.20;;
41667;SDS011;27356;50.920;5.350;2023-05-21T03:08:29;12.02;;;7.13;;
41667;SDS011;27356;50.920;5.350;2023-05-21T03:10:55;8.00;;;7.03;;
41667;SDS011;27356;50.920;5.350;2023-05-21T03:13:21;8.48;;;6.72;;
41667;SDS011;27356;50.920;5.350;2023-05-21T03:15:47;10.10;;;7.20;;
41667;SDS011;27356;50.920;5.350;2023-05-21T03:18:13;8.85;;;7.07;;
41667;SDS011;27356;50.920;5.350;2023-05-21T03:20:38;9.32;;;7.43;;
41667;SDS011;27356;50.920;5.350;2023-05-21T03:23:10;9.43;;;6.88;;
41667;SDS011;27356;50.920;5.350;2023-05-21T03:25:37;10.07;;;7.05;;
41667;SDS011;27356;50.920;5.350;2023-05-21T03:28:03;10.55;;;7.03;;
41667;SDS011;27356;50.920;5.350;2023-05-21T03:30:30;10.38;;;6.72;;
41667;SDS011;27356;50.920;5.350;2023-05-21T03:32:56;9.00;;;6.97;;
41667;SDS011;27356;50.920;5.350;2023-05-21T03:35:23;8.82;;;7.10;;
41667;SDS011;27356;50.920;5.350;2023-05-21T03:37:49;8.43;;;6.43;;
41667;SDS011;27356;50.920;5.350;2023-05-21T03:40:15;9.90;;;7.22;;
41667;SDS011;27356;50.920;5.350;2023-05-21T03:42:41;9.13;;;6.85;;
41667;SDS011;27356;50.920;5.350;2023-05-21T03:45:07;7.57;;;6.40;;
41667;SDS011;27356;50.920;5.350;2023-05-21T03:47:33;9.18;;;6.72;;
41667;SDS011;27356;50.920;5.350;2023-05-21T03:50:00;11.73;;;6.65;;
41667;SDS011;27356;50.920;5.350;2023-05-21T03:52:27;7.97;;;6.25;;
41667;SDS011;27356;50.920;5.350;2023-05-21T03:54:52;7.75;;;6.47;;
41667;SDS011;27356;50.920;5.350;2023-05-21T03:57:18;10.77;;;7.47;;
41667;SDS011;27356;50.920;5.350;2023-05-21T03:59:44;9.05;;;6.82;;
41667;SDS011;27356;50.920;5.350;2023-05-21T04:02:09;10.13;;;6.22;;
41667;SDS011;27356;50.920;5.350;2023-05-21T04:04:35;7.93;;;6.35;;
41667;SDS011;27356;50.920;5.350;2023-05-21T04:07:01;8.10;;;6.38;;
41667;SDS011;27356;50.920;5.350;2023-05-21T04:09:28;8.40;;;6.82;;
41667;SDS011;27356;50.920;5.350;2023-05-21T04:11:54;7.65;;;6.10;;
41667;SDS011;27356;50.920;5.350;2023-05-21T04:14:21;8.32;;;6.30;;
41667;SDS011;27356;50.920;5.350;2023-05-21T04:16:47;7.97;;;6.63;;
41667;SDS011;27356;50.920;5.350;2023-05-21T04:19:13;7.15;;;6.07;;
41667;SDS011;27356;50.920;5.350;2023-05-21T04:21:39;8.98;;;6.38;;
41667;SDS011;27356;50.920;5.350;2023-05-21T04:24:05;12.98;;;6.80;;
41667;SDS011;27356;50.920;5.350;2023-05-21T04:26:30;11.15;;;6.53;;
41667;SDS011;27356;50.920;5.350;2023-05-21T04:28:59;10.52;;;5.88;;
41667;SDS011;27356;50.920;5.350;2023-05-21T04:31:29;8.02;;;6.22;;
41667;SDS011;27356;50.920;5.350;2023-05-21T04:33:56;7.75;;;6.35;;
41667;SDS011;27356;50.920;5.350;2023-05-21T04:36:23;9.85;;;6.20;;
41667;SDS011;27356;50.920;5.350;2023-05-21T04:38:49;6.32;;;5.55;;
41667;SDS011;27356;50.920;5.350;2023-05-21T04:41:15;11.02;;;6.07;;
41667;SDS011;27356;50.920;5.350;2023-05-21T04:43:43;7.80;;;5.97;;
41667;SDS011;27356;50.920;5.350;2023-05-21T04:46:08;7.13;;;6.43;;
41667;SDS011;27356;50.920;5.350;2023-05-21T04:48:34;7.35;;;5.53;;
41667;SDS011;27356;50.920;5.350;2023-05-21T04:51:00;8.77;;;5.85;;
41667;SDS011;27356;50.920;5.350;2023-05-21T04:53:25;10.18;;;5.78;;
41667;SDS011;27356;50.920;5.350;2023-05-21T04:55:51;8.15;;;5.43;;
41667;SDS011;27356;50.920;5.350;2023-05-21T04:58:17;6.93;;;6.25;;
41667;SDS011;27356;50.920;5.350;2023-05-21T05:00:43;6.15;;;5.43;;
41667;SDS011;27356;50.920;5.350;2023-05-21T05:03:14;6.03;;;5.43;;
41667;SDS011;27356;50.920;5.350;2023-05-21T05:05:40;8.48;;;6.40;;
41667;SDS011;27356;50.920;5.350;2023-05-21T05:08:06;8.43;;;6.20;;
41667;SDS011;27356;50.920;5.350;2023-05-21T05:10:32;8.77;;;5.60;;
41667;SDS011;27356;50.920;5.350;2023-05-21T05:12:59;6.32;;;5.40;;
41667;SDS011;27356;50.920;5.350;2023-05-21T05:15:25;7.95;;;5.82;;
41667;SDS011;27356;50.920;5.350;2023-05-21T05:17:50;5.50;;;4.93;;
41667;SDS011;27356;50.920;5.350;2023-05-21T05:20:16;7.45;;;5.65;;
41667;SDS011;27356;50.920;5.350;2023-05-21T05:22:42;7.70;;;5.50;;
41667;SDS011;27356;50.920;5.350;2023-05-21T05:25:08;10.40;;;4.97;;
41667;SDS011;27356;50.920;5.350;2023-05-21T05:27:34;6.05;;;5.10;;
41667;SDS011;27356;50.920;5.350;2023-05-21T05:30:00;11.15;;;5.32;;
41667;SDS011;27356;50.920;5.350;2023-05-21T05:32:26;5.75;;;4.47;;
41667;SDS011;27356;50.920;5.350;2023-05-21T05:34:51;4.80;;;4.30;;
41667;SDS011;27356;50.920;5.350;2023-05-21T05:37:17;5.35;;;4.47;;
41667;SDS011;27356;50.920;5.350;2023-05-21T05:39:43;4.80;;;4.35;;
41667;SDS011;27356;50.920;5.350;2023-05-21T05:42:08;5.88;;;4.65;;
41667;SDS011;27356;50.920;5.350;2023-05-21T05:44:35;7.28;;;4.70;;
41667;SDS011;27356;50.920;5.350;2023-05-21T05:47:00;10.02;;;4.38;;
41667;SDS011;27356;50.920;5.350;2023-05-21T05:49:26;7.80;;;4.97;;
41667;SDS011;27356;50.920;5.350;2023-05-21T05:51:52;5.35;;;4.57;;
41667;SDS011;27356;50.920;5.350;2023-05-21T05:54:18;5.82;;;4.60;;
41667;SDS011;27356;50.920;5.350;2023-05-21T05:56:43;5.47;;;4.95;;
41667;SDS011;27356;50.920;5.350;2023-05-21T05:59:09;5.40;;;4.70;;
41667;SDS011;27356;50.920;5.350;2023-05-21T06:01:35;5.82;;;4.90;;
41667;SDS011;27356;50.920;5.350;2023-05-21T06:04:01;6.32;;;4.80;;
41667;SDS011;27356;50.920;5.350;2023-05-21T06:06:26;4.90;;;4.45;;
41667;SDS011;27356;50.920;5.350;2023-05-21T06:08:52;5.47;;;4.80;;
41667;SDS011;27356;50.920;5.350;2023-05-21T06:11:18;5.28;;;4.72;;
41667;SDS011;27356;50.920;5.350;2023-05-21T06:13:45;5.00;;;4.30;;
41667;SDS011;27356;50.920;5.350;2023-05-21T06:16:11;4.97;;;4.47;;
41667;SDS011;27356;50.920;5.350;2023-05-21T06:18:37;5.95;;;4.70;;
41667;SDS011;27356;50.920;5.350;2023-05-21T06:21:03;6.28;;;4.78;;
41667;SDS011;27356;50.920;5.350;2023-05-21T06:23:29;6.10;;;4.35;;
41667;SDS011;27356;50.920;5.350;2023-05-21T06:25:56;5.35;;;4.50;;
41667;SDS011;27356;50.920;5.350;2023-05-21T06:28:22;5.13;;;4.63;;
41667;SDS011;27356;50.920;5.350;2023-05-21T06:30:48;5.47;;;4.65;;
41667;SDS011;27356;50.920;5.350;2023-05-21T06:33:13;4.88;;;4.45;;
41667;SDS011;27356;50.920;5.350;2023-05-21T06:35:39;5.32;;;4.82;;
41667;SDS011;27356;50.920;5.350;2023-05-21T06:38:05;5.25;;;4.18;;
41667;SDS011;27356;50.920;5.350;2023-05-21T06:40:31;7.03;;;4.60;;
41667;SDS011;27356;50.920;5.350;2023-05-21T06:42:56;5.18;;;4.25;;
41667;SDS011;27356;50.920;5.350;2023-05-21T06:45:23;5.38;;;4.40;;
41667;SDS011;27356;50.920;5.350;2023-05-21T06:47:49;4.57;;;4.05;;
41667;SDS011;27356;50.920;5.350;2023-05-21T06:50:15;4.55;;;4.15;;
41667;SDS011;27356;50.920;5.350;2023-05-21T06:52:41;6.03;;;4.38;;
41667;SDS011;27356;50.920;5.350;2023-05-21T06:55:07;5.25;;;4.22;;
41667;SDS011;27356;50.920;5.350;2023-05-21T06:57:33;6.32;;;3.92;;
41667;SDS011;27356;50.920;5.350;2023-05-21T07:00:01;5.10;;;3.88;;
41667;SDS011;27356;50.920;5.350;2023-05-21T07:02:27;4.93;;;4.05;;
41667;SDS011;27356;50.920;5.350;2023-05-21T07:04:53;7.03;;;4.05;;
41667;SDS011;27356;50.920;5.350;2023-05-21T07:07:19;5.07;;;4.15;;
41667;SDS011;27356;50.920;5.350;2023-05-21T07:09:45;6.00;;;4.28;;
41667;SDS011;27356;50.920;5.350;2023-05-21T07:12:11;4.95;;;3.90;;
41667;SDS011;27356;50.920;5.350;2023-05-21T07:14:36;4.80;;;4.32;;
41667;SDS011;27356;50.920;5.350;2023-05-21T07:17:02;5.28;;;4.03;;
41667;SDS011;27356;50.920;5.350;2023-05-21T07:19:28;4.18;;;3.78;;
41667;SDS011;27356;50.920;5.350;2023-05-21T07:21:54;6.18;;;3.92;;
41667;SDS011;27356;50.920;5.350;2023-05-21T07:24:36;6.97;;;4.30;;
41667;SDS011;27356;50.920;5.350;2023-05-21T07:27:02;5.88;;;3.95;;
41667;SDS011;27356;50.920;5.350;2023-05-21T07:29:28;6.50;;;4.47;;
41667;SDS011;27356;50.920;5.350;2023-05-21T07:31:54;7.90;;;4.63;;
41667;SDS011;27356;50.920;5.350;2023-05-21T07:34:20;5.35;;;4.25;;
41667;SDS011;27356;50.920;5.350;2023-05-21T07:36:46;6.50;;;4.20;;
41667;SDS011;27356;50.920;5.350;2023-05-21T07:39:11;4.75;;;4.35;;
41667;SDS011;27356;50.920;5.350;2023-05-21T07:41:37;6.43;;;4.22;;
41667;SDS011;27356;50.920;5.350;2023-05-21T07:44:03;7.15;;;4.20;;
41667;SDS011;27356;50.920;5.350;2023-05-21T07:46:29;5.00;;;4.10;;
41667;SDS011;27356;50.920;5.350;2023-05-21T07:48:54;4.70;;;4.10;;
41667;SDS011;27356;50.920;5.350;2023-05-21T07:51:20;6.95;;;4.57;;
41667;SDS011;27356;50.920;5.350;2023-05-21T07:53:46;4.65;;;4.15;;
41667;SDS011;27356;50.920;5.350;2023-05-21T07:56:12;5.07;;;4.65;;
41667;SDS011;27356;50.920;5.350;2023-05-21T07:58:37;8.10;;;4.70;;
41667;SDS011;27356;50.920;5.350;2023-05-21T08:01:04;5.30;;;4.80;;
41667;SDS011;27356;50.920;5.350;2023-05-21T08:03:30;5.40;;;4.90;;
41667;SDS011;27356;50.920;5.350;2023-05-21T08:05:56;4.88;;;4.25;;
41667;SDS011;27356;50.920;5.350;2023-05-21T08:08:22;5.53;;;5.03;;
41667;SDS011;27356;50.920;5.350;2023-05-21T08:10:49;8.73;;;4.55;;
41667;SDS011;27356;50.920;5.350;2023-05-21T08:13:15;5.03;;;4.63;;
41667;SDS011;27356;50.920;5.350;2023-05-21T08:15:42;5.55;;;4.88;;
41667;SDS011;27356;50.920;5.350;2023-05-21T08:18:14;5.10;;;4.68;;
41667;SDS011;27356;50.920;5.350;2023-05-21T08:20:41;6.28;;;5.68;;
41667;SDS011;27356;50.920;5.350;2023-05-21T08:23:07;7.10;;;5.10;;
41667;SDS011;27356;50.920;5.350;2023-05-21T08:25:33;4.97;;;4.57;;
41667;SDS011;27356;50.920;5.350;2023-05-21T08:27:59;8.00;;;4.72;;
41667;SDS011;27356;50.920;5.350;2023-05-21T08:30:27;8.75;;;4.93;;
41667;SDS011;27356;50.920;5.350;2023-05-21T08:32:57;5.60;;;5.07;;
41667;SDS011;27356;50.920;5.350;2023-05-21T08:35:23;5.18;;;4.68;;
41667;SDS011;27356;50.920;5.350;2023-05-21T08:37:48;6.75;;;4.68;;
41667;SDS011;27356;50.920;5.350;2023-05-21T08:40:14;5.72;;;4.72;;
41667;SDS011;27356;50.920;5.350;2023-05-21T08:45:16;8.40;;;5.80;;
41667;SDS011;27356;50.920;5.350;2023-05-21T08:47:45;9.70;;;6.13;;
41667;SDS011;27356;50.920;5.350;2023-05-21T08:50:15;5.90;;;5.28;;
41667;SDS011;27356;50.920;5.350;2023-05-21T08:52:43;5.45;;;4.95;;
41667;SDS011;27356;50.920;5.350;2023-05-21T08:55:09;6.45;;;5.85;;
41667;SDS011;27356;50.920;5.350;2023-05-21T08:57:36;6.20;;;5.60;;
41667;SDS011;27356;50.920;5.350;2023-05-21T09:00:02;7.38;;;5.75;;
41667;SDS011;27356;50.920;5.350;2023-05-21T09:02:31;6.38;;;5.72;;
41667;SDS011;27356;50.920;5.350;2023-05-21T09:04:58;5.63;;;5.00;;
41667;SDS011;27356;50.920;5.350;2023-05-21T09:07:27;7.60;;;6.20;;
41667;SDS011;27356;50.920;5.350;2023-05-21T09:09:55;7.72;;;5.97;;
41667;SDS011;27356;50.920;5.350;2023-05-21T09:12:22;7.93;;;5.65;;
41667;SDS011;27356;50.920;5.350;2023-05-21T09:14:49;6.65;;;5.45;;
41667;SDS011;27356;50.920;5.350;2023-05-21T09:17:16;8.20;;;5.78;;
41667;SDS011;27356;50.920;5.350;2023-05-21T09:22:48;6.28;;;5.68;;
41667;SDS011;27356;50.920;5.350;2023-05-21T09:25:16;9.30;;;5.60;;
41667;SDS011;27356;50.920;5.350;2023-05-21T09:27:49;7.57;;;5.22;;
41667;SDS011;27356;50.920;5.350;2023-05-21T09:30:16;8.45;;;5.72;;
41667;SDS011;27356;50.920;5.350;2023-05-21T09:32:43;6.80;;;5.40;;
41667;SDS011;27356;50.920;5.350;2023-05-21T09:35:10;6.07;;;5.47;;
41667;SDS011;27356;50.920;5.350;2023-05-21T09:37:40;6.53;;;5.70;;
41667;SDS011;27356;50.920;5.350;2023-05-21T09:40:15;6.18;;;5.32;;
41667;SDS011;27356;50.920;5.350;2023-05-21T09:42:46;6.07;;;5.47;;
41667;SDS011;27356;50.920;5.350;2023-05-21T09:45:24;6.65;;;5.97;;
41667;SDS011;27356;50.920;5.350;2023-05-21T09:47:52;7.43;;;6.63;;
41667;SDS011;27356;50.920;5.350;2023-05-21T09:50:19;9.23;;;6.85;;
41667;SDS011;27356;50.920;5.350;2023-05-21T09:52:48;7.68;;;6.80;;
41667;SDS011;27356;50.920;5.350;2023-05-21T09:55:17;7.00;;;6.25;;
41667;SDS011;27356;50.920;5.350;2023-05-21T09:57:46;7.47;;;6.75;;
41667;SDS011;27356;50.920;5.350;2023-05-21T10:00:17;7.30;;;5.65;;
41667;SDS011;27356;50.920;5.350;2023-05-21T10:02:44;7.72;;;6.13;;
41667;SDS011;27356;50.920;5.350;2023-05-21T10:05:12;7.03;;;6.32;;
41667;SDS011;27356;50.920;5.350;2023-05-21T10:07:40;12.65;;;7.35;;
41667;SDS011;27356;50.920;5.350;2023-05-21T10:10:10;10.00;;;7.65;;
41667;SDS011;27356;50.920;5.350;2023-05-21T10:12:39;8.57;;;6.97;;
41667;SDS011;27356;50.920;5.350;2023-05-21T10:15:12;9.23;;;7.55;;
41667;SDS011;27356;50.920;5.350;2023-05-21T10:17:44;8.05;;;6.97;;
41667;SDS011;27356;50.920;5.350;2023-05-21T10:20:12;10.00;;;7.95;;
41667;SDS011;27356;50.920;5.350;2023-05-21T10:22:38;10.82;;;8.10;;
41667;SDS011;27356;50.920;5.350;2023-05-21T10:25:07;8.30;;;7.28;;
41667;SDS011;27356;50.920;5.350;2023-05-21T10:27:34;10.55;;;7.78;;
41667;SDS011;27356;50.920;5.350;2023-05-21T10:30:01;11.85;;;8.73;;
41667;SDS011;27356;50.920;5.350;2023-05-21T10:32:30;8.55;;;7.65;;
41667;SDS011;27356;50.920;5.350;2023-05-21T10:34:56;10.88;;;8.18;;
41667;SDS011;27356;50.920;5.350;2023-05-21T10:37:24;10.85;;;8.50;;
41667;SDS011;27356;50.920;5.350;2023-05-21T10:39:50;13.55;;;7.97;;
41667;SDS011;27356;50.920;5.350;2023-05-21T10:44:52;10.70;;;8.85;;
41667;SDS011;27356;50.920;5.350;2023-05-21T10:56:30;10.10;;;7.97;;
41667;SDS011;27356;50.920;5.350;2023-05-21T10:59:14;10.15;;;8.25;;
41667;SDS011;27356;50.920;5.350;2023-05-21T11:01:46;9.48;;;8.00;;
41667;SDS011;27356;50.920;5.350;2023-05-21T11:04:16;10.17;;;8.13;;
41667;SDS011;27356;50.920;5.350;2023-05-21T11:06:47;11.05;;;9.25;;
41667;SDS011;27356;50.920;5.350;2023-05-21T11:09:13;10.25;;;8.20;;
41667;SDS011;27356;50.920;5.350;2023-05-21T11:14:24;14.45;;;8.98;;
41667;SDS011;27356;50.920;5.350;2023-05-21T11:16:55;9.80;;;8.10;;
41667;SDS011;27356;50.920;5.350;2023-05-21T11:19:25;12.13;;;9.05;;
41667;SDS011;27356;50.920;5.350;2023-05-21T11:22:22;11.75;;;8.80;;
41667;SDS011;27356;50.920;5.350;2023-05-21T11:24:52;11.38;;;8.57;;
41667;SDS011;27356;50.920;5.350;2023-05-21T11:30:08;12.88;;;9.85;;
41667;SDS011;27356;50.920;5.350;2023-05-21T11:32:39;11.98;;;9.25;;
41667;SDS011;27356;50.920;5.350;2023-05-21T11:35:26;11.95;;;9.00;;
41667;SDS011;27356;50.920;5.350;2023-05-21T11:37:54;12.18;;;9.98;;
41667;SDS011;27356;50.920;5.350;2023-05-21T11:40:24;9.52;;;8.43;;
41667;SDS011;27356;50.920;5.350;2023-05-21T11:42:53;9.38;;;8.30;;
41667;SDS011;27356;50.920;5.350;2023-05-21T11:45:21;10.57;;;8.40;;
41667;SDS011;27356;50.920;5.350;2023-05-21T11:47:48;11.65;;;8.02;;
41667;SDS011;27356;50.920;5.350;2023-05-21T11:50:16;11.52;;;9.25;;
41667;SDS011;27356;50.920;5.350;2023-05-21T11:52:42;15.38;;;9.35;;
41667;SDS011;27356;50.920;5.350;2023-05-21T11:55:09;13.10;;;9.55;;
41667;SDS011;27356;50.920;5.350;2023-05-21T11:57:35;12.57;;;9.88;;
41667;SDS011;27356;50.920;5.350;2023-05-21T12:00:02;12.93;;;10.13;;
41667;SDS011;27356;50.920;5.350;2023-05-21T12:02:37;10.63;;;9.07;;
41667;SDS011;27356;50.920;5.350;2023-05-21T12:05:08;10.15;;;8.95;;
41667;SDS011;27356;50.920;5.350;2023-05-21T12:07:34;15.65;;;7.93;;
41667;SDS011;27356;50.920;5.350;2023-05-21T12:09:59;11.95;;;9.20;;
41667;SDS011;27356;50.920;5.350;2023-05-21T12:12:26;10.50;;;9.15;;
41667;SDS011;27356;50.920;5.350;2023-05-21T12:14:52;12.80;;;9.60;;
41667;SDS011;27356;50.920;5.350;2023-05-21T12:17:20;12.68;;;9.13;;
41667;SDS011;27356;50.920;5.350;2023-05-21T12:19:47;9.55;;;8.55;;
41667;SDS011;27356;50.920;5.350;2023-05-21T12:22:15;13.48;;;8.68;;
41667;SDS011;27356;50.920;5.350;2023-05-21T12:24:41;13.43;;;9.70;;
41667;SDS011;27356;50.920;5.350;2023-05-21T12:27:08;9.43;;;8.13;;
41667;SDS011;27356;50.920;5.350;2023-05-21T12:29:38;11.68;;;8.00;;
41667;SDS011;27356;50.920;5.350;2023-05-21T12:32:07;13.52;;;9.15;;
41667;SDS011;27356;50.920;5.350;2023-05-21T12:34:47;9.32;;;8.00;;
41667;SDS011;27356;50.920;5.350;2023-05-21T12:37:15;11.15;;;8.35;;
41667;SDS011;27356;50.920;5.350;2023-05-21T12:39:46;10.45;;;8.00;;
41667;SDS011;27356;50.920;5.350;2023-05-21T12:42:13;10.10;;;8.35;;
41667;SDS011;27356;50.920;5.350;2023-05-21T12:44:42;9.23;;;8.13;;
41667;SDS011;27356;50.920;5.350;2023-05-21T12:47:10;15.52;;;8.95;;
41667;SDS011;27356;50.920;5.350;2023-05-21T12:49:41;11.38;;;9.18;;
41667;SDS011;27356;50.920;5.350;2023-05-21T12:52:14;10.20;;;9.07;;
41667;SDS011;27356;50.920;5.350;2023-05-21T12:54:43;15.20;;;9.30;;
41667;SDS011;27356;50.920;5.350;2023-05-21T12:57:14;12.00;;;9.10;;
41667;SDS011;27356;50.920;5.350;2023-05-21T12:59:45;11.70;;;8.52;;
41667;SDS011;27356;50.920;5.350;2023-05-21T13:02:13;11.20;;;8.90;;
41667;SDS011;27356;50.920;5.350;2023-05-21T13:04:40;12.32;;;9.43;;
41667;SDS011;27356;50.920;5.350;2023-05-21T13:07:06;10.63;;;8.68;;
41667;SDS011;27356;50.920;5.350;2023-05-21T13:09:32;10.88;;;8.07;;
41667;SDS011;27356;50.920;5.350;2023-05-21T13:11:57;9.30;;;8.00;;
41667;SDS011;27356;50.920;5.350;2023-05-21T13:14:23;10.13;;;8.43;;
41667;SDS011;27356;50.920;5.350;2023-05-21T13:16:49;10.05;;;8.75;;
41667;SDS011;27356;50.920;5.350;2023-05-21T13:19:15;8.55;;;7.70;;
41667;SDS011;27356;50.920;5.350;2023-05-21T13:21:41;11.65;;;8.75;;
41667;SDS011;27356;50.920;5.350;2023-05-21T13:24:07;11.80;;;9.20;;
41667;SDS011;27356;50.920;5.350;2023-05-21T13:26:32;12.50;;;8.52;;
41667;SDS011;27356;50.920;5.350;2023-05-21T13:28:58;10.20;;;8.50;;
41667;SDS011;27356;50.920;5.350;2023-05-21T13:31:24;9.75;;;8.65;;
41667;SDS011;27356;50.920;5.350;2023-05-21T13:33:50;10.32;;;7.85;;
41667;SDS011;27356;50.920;5.350;2023-05-21T13:36:15;11.32;;;8.90;;
41667;SDS011;27356;50.920;5.350;2023-05-21T13:38:41;10.07;;;8.27;;
41667;SDS011;27356;50.920;5.350;2023-05-21T13:41:07;9.73;;;8.63;;
41667;SDS011;27356;50.920;5.350;2023-05-21T13:43:33;13.15;;;9.20;;
41667;SDS011;27356;50.920;5.350;2023-05-21T13:45:59;11.77;;;9.60;;
41667;SDS011;27356;50.920;5.350;2023-05-21T13:48:25;11.23;;;8.95;;
41667;SDS011;27356;50.920;5.350;2023-05-21T13:50:50;12.10;;;10.02;;
41667;SDS011;27356;50.920;5.350;2023-05-21T13:53:16;10.60;;;9.30;;
41667;SDS011;27356;50.920;5.350;2023-05-21T13:55:42;10.30;;;8.63;;
41667;SDS011;27356;50.920;5.350;2023-05-21T13:58:08;12.30;;;9.32;;
41667;SDS011;27356;50.920;5.350;2023-05-21T14:00:34;11.18;;;9.07;;
41667;SDS011;27356;50.920;5.350;2023-05-21T14:02:59;14.48;;;9.20;;
41667;SDS011;27356;50.920;5.350;2023-05-21T14:05:25;11.77;;;9.10;;
41667;SDS011;27356;50.920;5.350;2023-05-21T14:07:51;10.82;;;8.07;;
41667;SDS011;27356;50.920;5.350;2023-05-21T14:10:17;14.40;;;8.75;;
41667;SDS011;27356;50.920;5.350;2023-05-21T14:12:44;12.38;;;8.48;;
41667;SDS011;27356;50.920;5.350;2023-05-21T14:15:10;9.30;;;7.93;;
41667;SDS011;27356;50.920;5.350;2023-05-21T14:17:36;13.07;;;9.10;;
41667;SDS011;27356;50.920;5.350;2023-05-21T14:20:04;10.00;;;8.35;;
41667;SDS011;27356;50.920;5.350;2023-05-21T14:22:31;11.77;;;8.35;;
41667;SDS011;27356;50.920;5.350;2023-05-21T14:24:57;10.38;;;8.02;;
41667;SDS011;27356;50.920;5.350;2023-05-21T14:27:22;15.95;;;9.82;;
41667;SDS011;27356;50.920;5.350;2023-05-21T14:29:48;12.75;;;9.98;;
41667;SDS011;27356;50.920;5.350;2023-05-21T14:32:14;9.48;;;8.43;;
41667;SDS011;27356;50.920;5.350;2023-05-21T14:34:42;11.95;;;8.77;;
41667;SDS011;27356;50.920;5.350;2023-05-21T14:37:08;14.98;;;9.63;;
41667;SDS011;27356;50.920;5.350;2023-05-21T14:39:33;10.50;;;8.77;;
41667;SDS011;27356;50.920;5.350;2023-05-21T14:42:02;11.68;;;8.88;;
41667;SDS011;27356;50.920;5.350;2023-05-21T14:44:29;10.75;;;8.75;;
41667;SDS011;27356;50.920;5.350;2023-05-21T14:46:55;12.27;;;10.15;;
41667;SDS011;27356;50.920;5.350;2023-05-21T14:49:20;10.50;;;8.65;;
41667;SDS011;27356;50.920;5.350;2023-05-21T14:51:46;13.23;;;8.10;;
41667;SDS011;27356;50.920;5.350;2023-05-21T14:54:12;14.70;;;9.30;;
41667;SDS011;27356;50.920;5.350;2023-05-21T14:56:38;10.57;;;8.93;;
41667;SDS011;27356;50.920;5.350;2023-05-21T14:59:04;11.75;;;8.23;;
41667;SDS011;27356;50.920;5.350;2023-05-21T15:01:29;11.70;;;9.10;;
41667;SDS011;27356;50.920;5.350;2023-05-21T15:03:55;13.65;;;8.88;;
41667;SDS011;27356;50.920;5.350;2023-05-21T15:06:22;11.18;;;9.32;;
41667;SDS011;27356;50.920;5.350;2023-05-21T15:08:48;13.63;;;9.93;;
41667;SDS011;27356;50.920;5.350;2023-05-21T15:11:14;11.50;;;8.90;;